| time (UTC) | temp F | wind direction | speed knots | gust knots | rain 1hr in | rain 24hr in | rain mn in | humidity % | barometer mb |
| 20260508060007 | 43 | 311 | 1.7 | 7.8 | 0.00 | 0.00 | 0.00 | 61 | 1006.8 |
| 20260508054600 | 42 | 316 | 0.9 | 4.3 | 0.00 | 0.01 | 0.00 | 65 | 1007.3 |
| 20260508053120 | 38 | 21 | 0.0 | 1.7 | 0.00 | 0.01 | 0.00 | 75 | 1007.4 |
| 20260508051555 | 37 | 265 | 0.0 | 2.6 | 0.00 | 0.01 | 0.00 | 77 | 1007.5 |
| 20260508050051 | 38 | 163 | 0.0 | 0.9 | 0.00 | 0.01 | 0.00 | 75 | 1007.7 |
| 20260508044552 | 39 | 163 | 0.0 | 1.7 | 0.00 | 0.23 | 0.00 | 75 | 1007.8 |
| 20260508043047 | 38 | 62 | 0.0 | 1.7 | 0.00 | 0.23 | 0.00 | 76 | 1007.8 |
| 20260508041609 | 40 | 196 | 0.0 | 1.7 | 0.00 | 0.23 | 0.00 | 73 | 1007.8 |
| 20260508040059 | 39 | 194 | 0.0 | 1.7 | 0.00 | 0.23 | 0.00 | 72 | 1007.8 |
| 20260508034539 | 41 | 280 | 0.0 | 1.7 | 0.00 | 0.24 | 0.23 | 73 | 1007.7 |
| 20260508033036 | 42 | 294 | 0.0 | 0.9 | 0.00 | 0.24 | 0.23 | 66 | 1007.8 |
| 20260508031536 | 44 | 294 | 0.0 | 0.9 | 0.00 | 0.24 | 0.23 | 64 | 1007.9 |
| 20260508030033 | 46 | 294 | 0.0 | 0.9 | 0.00 | 0.24 | 0.23 | 57 | 1007.9 |
| 20260508024530 | 47 | 297 | 0.0 | 1.7 | 0.00 | 0.25 | 0.23 | 52 | 1007.8 |
| 20260508023027 | 48 | 339 | 0.0 | 3.5 | 0.00 | 0.25 | 0.23 | 51 | 1007.5 |
| 20260508021528 | 49 | 299 | 1.7 | 3.5 | 0.00 | 0.25 | 0.23 | 51 | 1007.5 |
| 20260508020033 | 50 | 9 | 1.7 | 4.3 | 0.00 | 0.25 | 0.23 | 53 | 1007.3 |
| 20260508014526 | 51 | 9 | 1.7 | 11.3 | 0.00 | 0.28 | 0.23 | 49 | 1007.2 |
| 20260508013026 | 51 | 360 | 2.6 | 7.0 | 0.00 | 0.28 | 0.23 | 51 | 1007.0 |
| 20260508011524 | 51 | 15 | 0.9 | 6.1 | 0.00 | 0.28 | 0.23 | 52 | 1007.0 |
| 20260508010024 | 52 | 355 | 1.7 | 6.1 | 0.00 | 0.28 | 0.23 | 51 | 1006.7 |
| 20260508004523 | 53 | 345 | 2.6 | 7.0 | 0.00 | 0.31 | 0.23 | 48 | 1006.4 |
| 20260508003022 | 52 | 338 | 3.5 | 7.0 | 0.00 | 0.31 | 0.23 | 47 | 1006.1 |
| 20260508001522 | 53 | 278 | 0.9 | 4.3 | 0.00 | 0.31 | 0.23 | 46 | 1005.9 |
| 20260508000022 | 54 | 302 | 0.9 | 2.6 | 0.00 | 0.31 | 0.23 | 45 | 1005.8 |
| 20260507234522 | 55 | 311 | 0.9 | 5.2 | 0.00 | 0.31 | 0.23 | 41 | 1005.6 |
| 20260507233032 | 56 | 333 | 0.9 | 6.1 | 0.00 | 0.31 | 0.23 | 41 | 1005.4 |
| 20260507231524 | 57 | 286 | 2.6 | 5.2 | 0.00 | 0.31 | 0.23 | 41 | 1005.1 |
| 20260507230019 | 58 | 341 | 1.7 | 5.2 | 0.00 | 0.31 | 0.23 | 39 | 1004.9 |
| 20260507224522 | 59 | 266 | 2.6 | 6.1 | 0.00 | 0.36 | 0.23 | 37 | 1004.7 |
| 20260507223019 | 60 | 311 | 1.7 | 5.2 | 0.00 | 0.36 | 0.23 | 38 | 1004.5 |
| 20260507221521 | 60 | 240 | 0.9 | 11.3 | 0.00 | 0.36 | 0.23 | 38 | 1004.3 |
| 20260507220017 | 60 | 313 | 1.7 | 12.2 | 0.00 | 0.36 | 0.23 | 36 | 1004.3 |
| 20260507214517 | 60 | 265 | 1.7 | 10.4 | 0.00 | 0.51 | 0.23 | 39 | 1004.3 |
| 20260507213022 | 61 | 34 | 1.7 | 7.0 | 0.00 | 0.51 | 0.23 | 38 | 1004.2 |
| 20260507211516 | 62 | 346 | 2.6 | 7.0 | 0.00 | 0.51 | 0.23 | 39 | 1004.1 |
| 20260507210015 | 62 | 321 | 3.5 | 12.2 | 0.00 | 0.51 | 0.23 | 41 | 1004.0 |
| 20260507204520 | 62 | 211 | 3.5 | 8.7 | 0.00 | 0.63 | 0.23 | 37 | 1003.9 |
| 20260507203015 | 63 | 259 | 4.3 | 11.3 | 0.00 | 0.63 | 0.23 | 37 | 1003.7 |
| 20260507201516 | 63 | 268 | 4.3 | 12.2 | 0.00 | 0.63 | 0.23 | 40 | 1003.7 |
| 20260507200013 | 63 | 278 | 2.6 | 11.3 | 0.00 | 0.63 | 0.23 | 42 | 1003.8 |
| 20260507194510 | 61 | 254 | 2.6 | 7.8 | 0.00 | 0.74 | 0.23 | 51 | 1003.8 |
| 20260507193014 | 62 | 311 | 4.3 | 13.0 | 0.00 | 0.74 | 0.23 | 52 | 1003.9 |
| 20260507191511 | 59 | 273 | 1.7 | 5.2 | 0.00 | 0.74 | 0.23 | 64 | 1004.0 |
| 20260507190008 | 60 | 199 | 3.5 | 7.0 | 0.00 | 0.74 | 0.23 | 63 | 1003.9 |
| 20260507184504 | 60 | 177 | 3.5 | 7.8 | 0.00 | 0.74 | 0.23 | 62 | 1004.2 |
| 20260507183003 | 59 | 188 | 3.5 | 7.8 | 0.00 | 0.74 | 0.23 | 61 | 1004.3 |
| 20260507181502 | 60 | 207 | 5.2 | 7.8 | 0.00 | 0.74 | 0.23 | 62 | 1004.5 |
| 20260507180003 | 58 | 276 | 4.3 | 8.7 | 0.00 | 0.74 | 0.23 | 64 | 1004.7 |
| 20260507174502 | 58 | 253 | 3.5 | 7.8 | 0.00 | 0.74 | 0.23 | 67 | 1004.9 |
| 20260507173003 | 56 | 209 | 4.3 | 7.8 | 0.00 | 0.74 | 0.23 | 70 | 1004.9 |
| 20260507171610 | 58 | 225 | 5.2 | 11.3 | 0.00 | 0.74 | 0.23 | 67 | 1004.9 |
| 20260507170117 | 58 | 190 | 4.3 | 6.1 | 0.00 | 0.74 | 0.23 | 65 | 1005.1 |
| 20260507164600 | 59 | 202 | 2.6 | 7.0 | 0.00 | 0.74 | 0.23 | 62 | 1005.0 |
| 20260507163100 | 59 | 192 | 0.0 | 4.3 | 0.00 | 0.74 | 0.23 | 63 | 1005.0 |
| 20260507161606 | 59 | 172 | 2.6 | 6.1 | 0.00 | 0.74 | 0.23 | 65 | 1005.3 |
| 20260507160059 | 60 | 269 | 1.7 | 7.8 | 0.00 | 0.74 | 0.23 | 58 | 1005.6 |
| 20260507154557 | 60 | 298 | 1.7 | 7.0 | 0.00 | 0.74 | 0.23 | 61 | 1005.7 |
| 20260507153100 | 60 | 220 | 1.7 | 5.2 | 0.00 | 0.74 | 0.23 | 58 | 1005.8 |
| 20260507151559 | 59 | 258 | 0.9 | 5.2 | 0.00 | 0.74 | 0.23 | 61 | 1005.8 |
| 20260507150059 | 58 | 290 | 0.9 | 3.5 | 0.00 | 0.74 | 0.23 | 63 | 1006.0 |
| 20260507144556 | 58 | 265 | 2.6 | 6.1 | 0.00 | 0.74 | 0.23 | 63 | 1006.1 |
| 20260507143050 | 58 | 204 | 1.7 | 7.0 | 0.00 | 0.74 | 0.23 | 64 | 1006.3 |
| 20260507141609 | 58 | 19 | 1.7 | 6.1 | 0.00 | 0.74 | 0.23 | 64 | 1006.4 |
| 20260507140048 | 57 | 340 | 0.9 | 5.2 | 0.00 | 0.74 | 0.23 | 69 | 1006.6 |
| 20260507134545 | 57 | 11 | 0.9 | 4.3 | 0.00 | 0.74 | 0.23 | 70 | 1006.6 |
| 20260507133042 | 55 | 259 | 1.7 | 6.1 | 0.00 | 0.74 | 0.23 | 69 | 1006.6 |
| 20260507131540 | 55 | 294 | 0.9 | 6.1 | 0.00 | 0.74 | 0.23 | 71 | 1006.6 |
| 20260507130039 | 54 | 342 | 2.6 | 7.0 | 0.00 | 0.74 | 0.23 | 71 | 1006.9 |
| 20260507124534 | 53 | 306 | 1.7 | 6.1 | 0.00 | 0.74 | 0.23 | 75 | 1007.1 |
| 20260507123039 | 52 | 274 | 1.7 | 5.2 | 0.00 | 0.74 | 0.23 | 76 | 1006.9 |
| 20260507121530 | 51 | 348 | 1.7 | 5.2 | 0.00 | 0.74 | 0.23 | 78 | 1006.9 |
| 20260507120040 | 50 | 5 | 0.9 | 2.6 | 0.00 | 0.74 | 0.23 | 81 | 1007.0 |
| 20260507114528 | 48 | 287 | 0.0 | 3.5 | 0.00 | 0.74 | 0.23 | 82 | 1006.9 |
| 20260507113039 | 49 | 12 | 0.0 | 1.7 | 0.00 | 0.74 | 0.23 | 85 | 1007.0 |
| 20260507111527 | 48 | 301 | 0.0 | 0.0 | 0.00 | 0.74 | 0.23 | 86 | 1007.3 |
| 20260507110030 | 47 | 42 | 0.0 | 0.0 | 0.00 | 0.74 | 0.23 | 87 | 1007.0 |
| 20260507104525 | 47 | 337 | 0.0 | 0.0 | 0.00 | 0.74 | 0.23 | 88 | 1007.2 |
| 20260507103022 | 46 | 205 | 0.0 | 2.6 | 0.00 | 0.74 | 0.23 | 88 | 1007.6 |
| 20260507101522 | 46 | 302 | 0.0 | 1.7 | 0.00 | 0.74 | 0.23 | 87 | 1007.1 |
| 20260507100030 | 46 | 323 | 0.0 | 0.9 | 0.00 | 0.74 | 0.23 | 87 | 1006.8 |
| 20260507094519 | 46 | 294 | 0.0 | 2.6 | 0.00 | 0.74 | 0.23 | 86 | 1006.8 |
| 20260507093018 | 46 | 321 | 0.9 | 2.6 | 0.00 | 0.74 | 0.23 | 85 | 1006.4 |
| 20260507091521 | 46 | 286 | 0.9 | 3.5 | 0.00 | 0.74 | 0.23 | 85 | 1006.8 |
| 20260507090015 | 47 | 32 | 0.9 | 7.0 | 0.00 | 0.74 | 0.23 | 85 | 1006.6 |
| 20260507084513 | 47 | 344 | 1.7 | 6.1 | 0.00 | 0.74 | 0.23 | 86 | 1006.5 |
| 20260507083011 | 48 | 24 | 0.9 | 4.3 | 0.00 | 0.74 | 0.23 | 88 | 1006.2 |
| 20260507081508 | 48 | 240 | 0.9 | 3.5 | 0.00 | 0.74 | 0.23 | 89 | 1006.6 |
| 20260507080006 | 48 | 273 | 0.9 | 2.6 | 0.00 | 0.74 | 0.23 | 89 | 1006.2 |
| 20260507074506 | 48 | 299 | 0.9 | 4.3 | 0.00 | 0.74 | 0.23 | 90 | 1006.2 |
| 20260507073004 | 48 | 308 | 0.9 | 4.3 | 0.00 | 0.74 | 0.23 | 91 | 1006.0 |
| 20260507071601 | 48 | 292 | 0.9 | 3.5 | 0.00 | 0.74 | 0.23 | 91 | 1005.9 |
| 20260507070059 | 49 | 296 | 1.7 | 4.3 | 0.00 | 0.74 | 0.23 | 92 | 1005.7 |
| 20260507064611 | 49 | 296 | 0.9 | 4.3 | 0.00 | 0.74 | 0.23 | 92 | 1005.5 |
| 20260507063106 | 49 | 267 | 0.9 | 3.5 | 0.00 | 0.74 | 0.23 | 92 | 1005.3 |
| 20260507061553 | 50 | 329 | 0.0 | 2.6 | 0.01 | 0.74 | 0.23 | 93 | 1005.3 |